sensor_id;sensor_type;location;lat;lon;timestamp;P1;durP1;ratioP1;P2;durP2;ratioP2
20458;SDS011;10388;52.314;7.938;2023-06-10T00:00:50;9.20;;;8.53;;
20458;SDS011;10388;52.314;7.938;2023-06-10T00:03:21;9.80;;;8.93;;
20458;SDS011;10388;52.314;7.938;2023-06-10T00:05:53;8.90;;;8.17;;
20458;SDS011;10388;52.314;7.938;2023-06-10T00:08:24;9.50;;;8.70;;
20458;SDS011;10388;52.314;7.938;2023-06-10T00:10:55;9.53;;;8.17;;
20458;SDS011;10388;52.314;7.938;2023-06-10T00:13:26;11.90;;;11.00;;
20458;SDS011;10388;52.314;7.938;2023-06-10T00:15:56;10.90;;;9.87;;
20458;SDS011;10388;52.314;7.938;2023-06-10T00:18:27;10.30;;;9.13;;
20458;SDS011;10388;52.314;7.938;2023-06-10T00:21:01;13.53;;;12.60;;
20458;SDS011;10388;52.314;7.938;2023-06-10T00:23:34;9.80;;;9.00;;
20458;SDS011;10388;52.314;7.938;2023-06-10T00:26:08;11.07;;;9.97;;
20458;SDS011;10388;52.314;7.938;2023-06-10T00:28:38;10.70;;;9.47;;
20458;SDS011;10388;52.314;7.938;2023-06-10T00:31:09;9.37;;;8.57;;
20458;SDS011;10388;52.314;7.938;2023-06-10T00:33:49;10.20;;;9.40;;
20458;SDS011;10388;52.314;7.938;2023-06-10T00:36:20;10.67;;;9.67;;
20458;SDS011;10388;52.314;7.938;2023-06-10T00:38:51;10.00;;;9.27;;
20458;SDS011;10388;52.314;7.938;2023-06-10T00:41:21;11.20;;;10.40;;
20458;SDS011;10388;52.314;7.938;2023-06-10T00:43:52;10.53;;;9.63;;
20458;SDS011;10388;52.314;7.938;2023-06-10T00:46:23;9.13;;;8.53;;
20458;SDS011;10388;52.314;7.938;2023-06-10T00:48:57;10.07;;;9.23;;
20458;SDS011;10388;52.314;7.938;2023-06-10T00:51:28;10.60;;;9.70;;
20458;SDS011;10388;52.314;7.938;2023-06-10T00:53:59;9.27;;;8.47;;
20458;SDS011;10388;52.314;7.938;2023-06-10T00:56:29;9.57;;;8.60;;
20458;SDS011;10388;52.314;7.938;2023-06-10T00:59:01;10.60;;;9.80;;
20458;SDS011;10388;52.314;7.938;2023-06-10T01:01:32;10.20;;;8.47;;
20458;SDS011;10388;52.314;7.938;2023-06-10T01:04:03;9.93;;;8.80;;
20458;SDS011;10388;52.314;7.938;2023-06-10T01:06:36;9.27;;;8.37;;
20458;SDS011;10388;52.314;7.938;2023-06-10T01:12:20;8.70;;;8.00;;
20458;SDS011;10388;52.314;7.938;2023-06-10T01:15:04;10.07;;;9.07;;
20458;SDS011;10388;52.314;7.938;2023-06-10T01:17:37;9.77;;;8.87;;
20458;SDS011;10388;52.314;7.938;2023-06-10T01:20:27;8.73;;;7.97;;
20458;SDS011;10388;52.314;7.938;2023-06-10T01:22:59;9.60;;;8.80;;
20458;SDS011;10388;52.314;7.938;2023-06-10T01:25:30;9.80;;;9.00;;
20458;SDS011;10388;52.314;7.938;2023-06-10T01:28:04;9.40;;;8.70;;
20458;SDS011;10388;52.314;7.938;2023-06-10T01:31:05;9.53;;;8.47;;
20458;SDS011;10388;52.314;7.938;2023-06-10T01:34:07;9.67;;;8.77;;
20458;SDS011;10388;52.314;7.938;2023-06-10T01:36:40;10.63;;;9.63;;
20458;SDS011;10388;52.314;7.938;2023-06-10T01:39:15;9.97;;;8.93;;
20458;SDS011;10388;52.314;7.938;2023-06-10T01:41:54;8.83;;;8.13;;
20458;SDS011;10388;52.314;7.938;2023-06-10T01:44:26;8.80;;;7.90;;
20458;SDS011;10388;52.314;7.938;2023-06-10T01:46:56;9.13;;;8.23;;
20458;SDS011;10388;52.314;7.938;2023-06-10T01:49:27;9.40;;;8.47;;
20458;SDS011;10388;52.314;7.938;2023-06-10T01:51:58;9.00;;;8.10;;
20458;SDS011;10388;52.314;7.938;2023-06-10T01:54:29;9.03;;;8.03;;
20458;SDS011;10388;52.314;7.938;2023-06-10T01:57:00;9.47;;;8.33;;
20458;SDS011;10388;52.314;7.938;2023-06-10T01:59:31;9.60;;;8.67;;
20458;SDS011;10388;52.314;7.938;2023-06-10T02:02:02;9.23;;;8.33;;
20458;SDS011;10388;52.314;7.938;2023-06-10T02:04:34;8.50;;;7.73;;
20458;SDS011;10388;52.314;7.938;2023-06-10T02:07:05;11.03;;;9.53;;
20458;SDS011;10388;52.314;7.938;2023-06-10T02:09:36;9.27;;;7.97;;
20458;SDS011;10388;52.314;7.938;2023-06-10T02:12:06;9.07;;;8.23;;
20458;SDS011;10388;52.314;7.938;2023-06-10T02:14:37;8.73;;;8.00;;
20458;SDS011;10388;52.314;7.938;2023-06-10T02:17:08;9.70;;;8.23;;
20458;SDS011;10388;52.314;7.938;2023-06-10T02:19:42;9.67;;;8.67;;
20458;SDS011;10388;52.314;7.938;2023-06-10T02:22:13;8.90;;;7.87;;
20458;SDS011;10388;52.314;7.938;2023-06-10T02:24:43;9.40;;;8.03;;
20458;SDS011;10388;52.314;7.938;2023-06-10T02:27:15;8.70;;;7.87;;
20458;SDS011;10388;52.314;7.938;2023-06-10T02:29:46;9.30;;;7.00;;
20458;SDS011;10388;52.314;7.938;2023-06-10T02:32:16;7.63;;;6.93;;
20458;SDS011;10388;52.314;7.938;2023-06-10T02:34:47;7.93;;;7.23;;
20458;SDS011;10388;52.314;7.938;2023-06-10T02:37:19;8.80;;;8.03;;
20458;SDS011;10388;52.314;7.938;2023-06-10T02:39:53;8.27;;;7.47;;
20458;SDS011;10388;52.314;7.938;2023-06-10T02:42:24;8.13;;;7.43;;
20458;SDS011;10388;52.314;7.938;2023-06-10T02:44:57;9.90;;;8.90;;
20458;SDS011;10388;52.314;7.938;2023-06-10T02:47:27;8.13;;;7.27;;
20458;SDS011;10388;52.314;7.938;2023-06-10T02:49:58;8.87;;;7.90;;
20458;SDS011;10388;52.314;7.938;2023-06-10T02:52:29;9.37;;;8.57;;
20458;SDS011;10388;52.314;7.938;2023-06-10T02:55:00;7.80;;;6.90;;
20458;SDS011;10388;52.314;7.938;2023-06-10T02:57:30;10.80;;;7.60;;
20458;SDS011;10388;52.314;7.938;2023-06-10T03:00:01;8.43;;;7.63;;
20458;SDS011;10388;52.314;7.938;2023-06-10T03:02:34;7.50;;;6.70;;
20458;SDS011;10388;52.314;7.938;2023-06-10T03:05:07;7.83;;;7.13;;
20458;SDS011;10388;52.314;7.938;2023-06-10T03:07:41;8.70;;;6.93;;
20458;SDS011;10388;52.314;7.938;2023-06-10T03:10:11;7.60;;;6.77;;
20458;SDS011;10388;52.314;7.938;2023-06-10T03:12:42;8.70;;;7.77;;
20458;SDS011;10388;52.314;7.938;2023-06-10T03:15:12;8.80;;;7.00;;
20458;SDS011;10388;52.314;7.938;2023-06-10T03:17:44;7.90;;;6.67;;
20458;SDS011;10388;52.314;7.938;2023-06-10T03:20:14;7.53;;;6.77;;
20458;SDS011;10388;52.314;7.938;2023-06-10T03:22:46;8.43;;;7.73;;
20458;SDS011;10388;52.314;7.938;2023-06-10T03:25:17;7.10;;;6.30;;
20458;SDS011;10388;52.314;7.938;2023-06-10T03:27:48;8.40;;;7.67;;
20458;SDS011;10388;52.314;7.938;2023-06-10T03:30:18;8.63;;;7.07;;
20458;SDS011;10388;52.314;7.938;2023-06-10T03:32:49;8.93;;;7.63;;
20458;SDS011;10388;52.314;7.938;2023-06-10T03:35:32;9.87;;;7.30;;
20458;SDS011;10388;52.314;7.938;2023-06-10T03:38:02;6.93;;;6.33;;
20458;SDS011;10388;52.314;7.938;2023-06-10T03:40:33;6.53;;;5.97;;
20458;SDS011;10388;52.314;7.938;2023-06-10T03:43:03;7.60;;;6.60;;
20458;SDS011;10388;52.314;7.938;2023-06-10T03:45:34;7.07;;;6.37;;
20458;SDS011;10388;52.314;7.938;2023-06-10T03:48:06;6.93;;;6.33;;
20458;SDS011;10388;52.314;7.938;2023-06-10T03:50:38;6.87;;;6.17;;
20458;SDS011;10388;52.314;7.938;2023-06-10T03:53:09;9.27;;;7.37;;
20458;SDS011;10388;52.314;7.938;2023-06-10T03:55:39;6.73;;;5.60;;
20458;SDS011;10388;52.314;7.938;2023-06-10T03:58:11;7.07;;;6.37;;
20458;SDS011;10388;52.314;7.938;2023-06-10T04:00:43;6.67;;;5.97;;
20458;SDS011;10388;52.314;7.938;2023-06-10T04:03:15;6.80;;;6.20;;
20458;SDS011;10388;52.314;7.938;2023-06-10T04:05:46;7.57;;;6.80;;
20458;SDS011;10388;52.314;7.938;2023-06-10T04:11:46;7.03;;;6.33;;
20458;SDS011;10388;52.314;7.938;2023-06-10T04:14:18;8.17;;;6.80;;
20458;SDS011;10388;52.314;7.938;2023-06-10T04:16:49;8.37;;;6.57;;
20458;SDS011;10388;52.314;7.938;2023-06-10T04:19:20;7.10;;;6.47;;
20458;SDS011;10388;52.314;7.938;2023-06-10T04:21:51;6.90;;;6.30;;
20458;SDS011;10388;52.314;7.938;2023-06-10T04:24:21;7.80;;;6.30;;
20458;SDS011;10388;52.314;7.938;2023-06-10T04:26:52;6.97;;;6.27;;
20458;SDS011;10388;52.314;7.938;2023-06-10T04:29:23;7.60;;;6.23;;
20458;SDS011;10388;52.314;7.938;2023-06-10T04:31:54;6.17;;;5.57;;
20458;SDS011;10388;52.314;7.938;2023-06-10T04:34:24;8.50;;;6.20;;
20458;SDS011;10388;52.314;7.938;2023-06-10T04:36:55;9.13;;;8.07;;
20458;SDS011;10388;52.314;7.938;2023-06-10T04:39:26;8.60;;;7.90;;
20458;SDS011;10388;52.314;7.938;2023-06-10T04:41:57;9.83;;;9.03;;
20458;SDS011;10388;52.314;7.938;2023-06-10T04:44:29;7.97;;;7.27;;
20458;SDS011;10388;52.314;7.938;2023-06-10T04:47:00;8.10;;;7.30;;
20458;SDS011;10388;52.314;7.938;2023-06-10T04:49:31;8.10;;;7.30;;
20458;SDS011;10388;52.314;7.938;2023-06-10T04:52:01;8.10;;;7.17;;
20458;SDS011;10388;52.314;7.938;2023-06-10T04:54:34;10.73;;;9.57;;
20458;SDS011;10388;52.314;7.938;2023-06-10T04:57:05;8.07;;;7.33;;
20458;SDS011;10388;52.314;7.938;2023-06-10T04:59:37;7.83;;;6.73;;
20458;SDS011;10388;52.314;7.938;2023-06-10T05:02:08;8.20;;;6.73;;
20458;SDS011;10388;52.314;7.938;2023-06-10T05:04:38;7.70;;;6.37;;
20458;SDS011;10388;52.314;7.938;2023-06-10T05:07:09;7.33;;;6.73;;
20458;SDS011;10388;52.314;7.938;2023-06-10T05:09:39;7.30;;;6.47;;
20458;SDS011;10388;52.314;7.938;2023-06-10T05:12:10;25.47;;;23.43;;
20458;SDS011;10388;52.314;7.938;2023-06-10T05:14:40;9.07;;;8.37;;
20458;SDS011;10388;52.314;7.938;2023-06-10T05:17:11;7.87;;;7.13;;
20458;SDS011;10388;52.314;7.938;2023-06-10T05:19:42;7.00;;;6.37;;
20458;SDS011;10388;52.314;7.938;2023-06-10T05:22:14;9.47;;;6.90;;
20458;SDS011;10388;52.314;7.938;2023-06-10T05:24:46;7.13;;;6.30;;
20458;SDS011;10388;52.314;7.938;2023-06-10T05:27:16;7.90;;;7.10;;
20458;SDS011;10388;52.314;7.938;2023-06-10T05:29:47;9.00;;;6.70;;
20458;SDS011;10388;52.314;7.938;2023-06-10T05:32:18;7.97;;;7.23;;
20458;SDS011;10388;52.314;7.938;2023-06-10T05:34:48;7.00;;;6.30;;
20458;SDS011;10388;52.314;7.938;2023-06-10T05:37:19;7.47;;;6.77;;
20458;SDS011;10388;52.314;7.938;2023-06-10T05:39:49;11.63;;;10.53;;
20458;SDS011;10388;52.314;7.938;2023-06-10T05:42:20;7.17;;;6.63;;
20458;SDS011;10388;52.314;7.938;2023-06-10T05:44:50;8.37;;;7.57;;
20458;SDS011;10388;52.314;7.938;2023-06-10T05:47:21;8.07;;;7.27;;
20458;SDS011;10388;52.314;7.938;2023-06-10T05:49:51;9.70;;;7.27;;
20458;SDS011;10388;52.314;7.938;2023-06-10T05:52:22;8.63;;;7.83;;
20458;SDS011;10388;52.314;7.938;2023-06-10T05:54:52;8.97;;;8.13;;
20458;SDS011;10388;52.314;7.938;2023-06-10T05:57:24;9.03;;;8.23;;
20458;SDS011;10388;52.314;7.938;2023-06-10T05:59:55;9.60;;;8.70;;
20458;SDS011;10388;52.314;7.938;2023-06-10T06:02:25;8.13;;;7.40;;
20458;SDS011;10388;52.314;7.938;2023-06-10T06:04:56;7.77;;;7.10;;
20458;SDS011;10388;52.314;7.938;2023-06-10T06:07:26;10.07;;;8.10;;
20458;SDS011;10388;52.314;7.938;2023-06-10T06:09:57;7.97;;;7.37;;
20458;SDS011;10388;52.314;7.938;2023-06-10T06:12:27;10.43;;;9.43;;
20458;SDS011;10388;52.314;7.938;2023-06-10T06:14:58;9.70;;;8.70;;
20458;SDS011;10388;52.314;7.938;2023-06-10T06:17:28;9.30;;;8.40;;
20458;SDS011;10388;52.314;7.938;2023-06-10T06:19:59;10.63;;;9.70;;
20458;SDS011;10388;52.314;7.938;2023-06-10T06:22:30;10.97;;;9.93;;
20458;SDS011;10388;52.314;7.938;2023-06-10T06:25:00;9.97;;;9.27;;
20458;SDS011;10388;52.314;7.938;2023-06-10T06:27:31;11.73;;;10.73;;
20458;SDS011;10388;52.314;7.938;2023-06-10T06:30:01;11.77;;;10.63;;
20458;SDS011;10388;52.314;7.938;2023-06-10T06:32:32;14.17;;;12.97;;
20458;SDS011;10388;52.314;7.938;2023-06-10T06:35:03;13.57;;;12.40;;
20458;SDS011;10388;52.314;7.938;2023-06-10T06:37:37;16.43;;;15.07;;
20458;SDS011;10388;52.314;7.938;2023-06-10T06:40:08;15.47;;;14.50;;
20458;SDS011;10388;52.314;7.938;2023-06-10T06:42:39;15.77;;;14.57;;
20458;SDS011;10388;52.314;7.938;2023-06-10T06:45:09;13.57;;;12.63;;
20458;SDS011;10388;52.314;7.938;2023-06-10T06:47:40;15.90;;;14.90;;
20458;SDS011;10388;52.314;7.938;2023-06-10T06:50:10;17.73;;;16.53;;
20458;SDS011;10388;52.314;7.938;2023-06-10T06:52:41;18.53;;;17.10;;
20458;SDS011;10388;52.314;7.938;2023-06-10T06:55:12;18.90;;;17.63;;
20458;SDS011;10388;52.314;7.938;2023-06-10T06:57:42;23.97;;;22.57;;
20458;SDS011;10388;52.314;7.938;2023-06-10T07:00:13;21.20;;;19.93;;
20458;SDS011;10388;52.314;7.938;2023-06-10T07:02:44;24.37;;;22.97;;
20458;SDS011;10388;52.314;7.938;2023-06-10T07:05:14;26.07;;;24.57;;
20458;SDS011;10388;52.314;7.938;2023-06-10T07:07:45;25.07;;;23.50;;
20458;SDS011;10388;52.314;7.938;2023-06-10T07:10:15;26.57;;;24.87;;
20458;SDS011;10388;52.314;7.938;2023-06-10T07:12:46;27.37;;;25.83;;
20458;SDS011;10388;52.314;7.938;2023-06-10T07:15:17;31.83;;;29.93;;
20458;SDS011;10388;52.314;7.938;2023-06-10T07:17:47;32.63;;;30.73;;
20458;SDS011;10388;52.314;7.938;2023-06-10T07:20:18;34.53;;;32.53;;
20458;SDS011;10388;52.314;7.938;2023-06-10T07:22:49;35.57;;;33.67;;
20458;SDS011;10388;52.314;7.938;2023-06-10T07:25:19;39.50;;;37.10;;
20458;SDS011;10388;52.314;7.938;2023-06-10T07:27:50;45.20;;;42.67;;
20458;SDS011;10388;52.314;7.938;2023-06-10T07:30:20;44.13;;;41.73;;
20458;SDS011;10388;52.314;7.938;2023-06-10T07:32:51;45.43;;;42.90;;
20458;SDS011;10388;52.314;7.938;2023-06-10T07:35:21;46.77;;;43.97;;
20458;SDS011;10388;52.314;7.938;2023-06-10T07:37:52;47.90;;;45.27;;
20458;SDS011;10388;52.314;7.938;2023-06-10T07:40:23;51.90;;;49.17;;
20458;SDS011;10388;52.314;7.938;2023-06-10T07:42:54;47.53;;;45.00;;
20458;SDS011;10388;52.314;7.938;2023-06-10T07:45:25;60.63;;;57.50;;
20458;SDS011;10388;52.314;7.938;2023-06-10T07:47:55;62.13;;;58.60;;
20458;SDS011;10388;52.314;7.938;2023-06-10T07:50:26;70.97;;;67.33;;
20458;SDS011;10388;52.314;7.938;2023-06-10T07:52:56;75.40;;;71.30;;
20458;SDS011;10388;52.314;7.938;2023-06-10T07:55:27;83.33;;;78.87;;
20458;SDS011;10388;52.314;7.938;2023-06-10T07:57:58;81.87;;;77.77;;
20458;SDS011;10388;52.314;7.938;2023-06-10T08:00:28;94.27;;;89.50;;
20458;SDS011;10388;52.314;7.938;2023-06-10T08:02:59;85.03;;;80.63;;
20458;SDS011;10388;52.314;7.938;2023-06-10T08:05:29;94.37;;;89.40;;
20458;SDS011;10388;52.314;7.938;2023-06-10T08:08:00;98.87;;;93.97;;
20458;SDS011;10388;52.314;7.938;2023-06-10T08:10:30;100.47;;;95.20;;
20458;SDS011;10388;52.314;7.938;2023-06-10T08:13:01;110.90;;;105.07;;
20458;SDS011;10388;52.314;7.938;2023-06-10T08:15:32;102.23;;;96.97;;
20458;SDS011;10388;52.314;7.938;2023-06-10T08:18:02;107.80;;;101.90;;
20458;SDS011;10388;52.314;7.938;2023-06-10T08:20:33;112.40;;;106.27;;
20458;SDS011;10388;52.314;7.938;2023-06-10T08:23:03;127.27;;;120.47;;
20458;SDS011;10388;52.314;7.938;2023-06-10T08:25:34;127.80;;;121.23;;
20458;SDS011;10388;52.314;7.938;2023-06-10T08:28:04;122.60;;;116.10;;
20458;SDS011;10388;52.314;7.938;2023-06-10T08:30:35;117.70;;;111.63;;
20458;SDS011;10388;52.314;7.938;2023-06-10T08:33:05;119.57;;;113.40;;
20458;SDS011;10388;52.314;7.938;2023-06-10T08:35:36;122.07;;;115.57;;
20458;SDS011;10388;52.314;7.938;2023-06-10T08:38:06;133.43;;;126.27;;
20458;SDS011;10388;52.314;7.938;2023-06-10T08:40:37;142.70;;;135.40;;
20458;SDS011;10388;52.314;7.938;2023-06-10T08:43:10;143.77;;;136.20;;
20458;SDS011;10388;52.314;7.938;2023-06-10T08:46:09;130.70;;;124.00;;
20458;SDS011;10388;52.314;7.938;2023-06-10T08:48:42;147.70;;;140.20;;
20458;SDS011;10388;52.314;7.938;2023-06-10T08:51:14;142.27;;;134.83;;
20458;SDS011;10388;52.314;7.938;2023-06-10T08:53:50;167.20;;;158.40;;
20458;SDS011;10388;52.314;7.938;2023-06-10T08:56:25;155.23;;;146.97;;
20458;SDS011;10388;52.314;7.938;2023-06-10T08:58:57;154.50;;;146.57;;
20458;SDS011;10388;52.314;7.938;2023-06-10T09:01:29;159.67;;;151.43;;
20458;SDS011;10388;52.314;7.938;2023-06-10T09:04:00;164.87;;;155.93;;
20458;SDS011;10388;52.314;7.938;2023-06-10T09:06:32;178.30;;;168.93;;
20458;SDS011;10388;52.314;7.938;2023-06-10T09:09:05;183.00;;;173.40;;
20458;SDS011;10388;52.314;7.938;2023-06-10T09:11:37;175.50;;;166.37;;
20458;SDS011;10388;52.314;7.938;2023-06-10T09:14:08;169.40;;;160.47;;
20458;SDS011;10388;52.314;7.938;2023-06-10T09:16:38;172.87;;;163.97;;
20458;SDS011;10388;52.314;7.938;2023-06-10T09:19:10;188.27;;;178.13;;
20458;SDS011;10388;52.314;7.938;2023-06-10T09:21:41;180.10;;;170.47;;
20458;SDS011;10388;52.314;7.938;2023-06-10T09:24:11;183.93;;;173.90;;
20458;SDS011;10388;52.314;7.938;2023-06-10T09:26:42;182.07;;;172.57;;
20458;SDS011;10388;52.314;7.938;2023-06-10T09:29:13;202.90;;;192.10;;
20458;SDS011;10388;52.314;7.938;2023-06-10T09:31:44;208.10;;;197.47;;
20458;SDS011;10388;52.314;7.938;2023-06-10T09:34:15;217.50;;;205.90;;
20458;SDS011;10388;52.314;7.938;2023-06-10T09:36:46;223.97;;;211.53;;
20458;SDS011;10388;52.314;7.938;2023-06-10T09:39:18;196.80;;;186.10;;
20458;SDS011;10388;52.314;7.938;2023-06-10T09:41:48;247.13;;;232.00;;
20458;SDS011;10388;52.314;7.938;2023-06-10T09:44:20;225.83;;;213.30;;
20458;SDS011;10388;52.314;7.938;2023-06-10T09:46:51;208.43;;;196.70;;
20458;SDS011;10388;52.314;7.938;2023-06-10T09:49:24;212.67;;;201.30;;
20458;SDS011;10388;52.314;7.938;2023-06-10T09:51:59;205.23;;;193.90;;
20458;SDS011;10388;52.314;7.938;2023-06-10T09:54:31;217.97;;;206.17;;
20458;SDS011;10388;52.314;7.938;2023-06-10T09:57:06;206.67;;;195.30;;
20458;SDS011;10388;52.314;7.938;2023-06-10T09:59:37;221.13;;;208.83;;
20458;SDS011;10388;52.314;7.938;2023-06-10T10:02:14;220.23;;;207.93;;
20458;SDS011;10388;52.314;7.938;2023-06-10T10:04:46;209.70;;;198.27;;
20458;SDS011;10388;52.314;7.938;2023-06-10T10:07:16;200.40;;;189.53;;
20458;SDS011;10388;52.314;7.938;2023-06-10T10:09:47;212.17;;;200.17;;
20458;SDS011;10388;52.314;7.938;2023-06-10T10:12:18;246.90;;;232.73;;
20458;SDS011;10388;52.314;7.938;2023-06-10T10:14:48;245.03;;;230.80;;
20458;SDS011;10388;52.314;7.938;2023-06-10T10:17:21;240.53;;;227.10;;
20458;SDS011;10388;52.314;7.938;2023-06-10T10:19:54;243.70;;;230.15;;
20458;SDS011;10388;52.314;7.938;2023-06-10T10:22:30;236.00;;;222.87;;
20458;SDS011;10388;52.314;7.938;2023-06-10T10:25:16;221.97;;;209.47;;
20458;SDS011;10388;52.314;7.938;2023-06-10T10:28:03;232.47;;;219.70;;
20458;SDS011;10388;52.314;7.938;2023-06-10T10:30:42;211.70;;;199.50;;
20458;SDS011;10388;52.314;7.938;2023-06-10T10:35:46;235.57;;;222.03;;
20458;SDS011;10388;52.314;7.938;2023-06-10T10:38:16;237.47;;;224.20;;
20458;SDS011;10388;52.314;7.938;2023-06-10T10:40:47;259.10;;;244.43;;
20458;SDS011;10388;52.314;7.938;2023-06-10T10:43:19;243.10;;;229.30;;
20458;SDS011;10388;52.314;7.938;2023-06-10T10:45:59;239.77;;;225.90;;
20458;SDS011;10388;52.314;7.938;2023-06-10T10:48:35;241.23;;;227.33;;
20458;SDS011;10388;52.314;7.938;2023-06-10T10:51:08;232.63;;;219.07;;
20458;SDS011;10388;52.314;7.938;2023-06-10T10:53:40;232.53;;;219.60;;
20458;SDS011;10388;52.314;7.938;2023-06-10T10:56:14;224.53;;;211.77;;
20458;SDS011;10388;52.314;7.938;2023-06-10T10:59:02;221.52;;;208.90;;
20458;SDS011;10388;52.314;7.938;2023-06-10T11:01:40;236.32;;;222.98;;
20458;SDS011;10388;52.314;7.938;2023-06-10T11:04:12;254.98;;;240.55;;
20458;SDS011;10388;52.314;7.938;2023-06-10T11:06:51;235.48;;;222.18;;
20458;SDS011;10388;52.314;7.938;2023-06-10T11:09:26;228.80;;;215.50;;
20458;SDS011;10388;52.314;7.938;2023-06-10T11:11:58;218.68;;;206.02;;
20458;SDS011;10388;52.314;7.938;2023-06-10T11:14:29;234.63;;;221.27;;
20458;SDS011;10388;52.314;7.938;2023-06-10T11:17:01;247.80;;;233.50;;
20458;SDS011;10388;52.314;7.938;2023-06-10T11:19:50;228.50;;;215.32;;
20458;SDS011;10388;52.314;7.938;2023-06-10T11:22:20;270.02;;;253.80;;
20458;SDS011;10388;52.314;7.938;2023-06-10T11:24:51;261.83;;;246.68;;
20458;SDS011;10388;52.314;7.938;2023-06-10T11:27:22;248.63;;;234.27;;
20458;SDS011;10388;52.314;7.938;2023-06-10T11:32:36;214.00;;;201.75;;
20458;SDS011;10388;52.314;7.938;2023-06-10T11:35:07;229.57;;;216.43;;
20458;SDS011;10388;52.314;7.938;2023-06-10T11:37:38;250.90;;;236.60;;
20458;SDS011;10388;52.314;7.938;2023-06-10T11:40:08;248.48;;;233.85;;
20458;SDS011;10388;52.314;7.938;2023-06-10T11:42:42;247.63;;;233.05;;
20458;SDS011;10388;52.314;7.938;2023-06-10T11:45:16;290.48;;;272.83;;
20458;SDS011;10388;52.314;7.938;2023-06-10T11:47:57;242.23;;;228.20;;
20458;SDS011;10388;52.314;7.938;2023-06-10T11:50:31;257.40;;;242.15;;
20458;SDS011;10388;52.314;7.938;2023-06-10T11:53:03;256.17;;;241.20;;
20458;SDS011;10388;52.314;7.938;2023-06-10T11:55:41;235.52;;;222.00;;
20458;SDS011;10388;52.314;7.938;2023-06-10T11:58:15;225.40;;;212.65;;
20458;SDS011;10388;52.314;7.938;2023-06-10T12:00:53;214.45;;;202.30;;
20458;SDS011;10388;52.314;7.938;2023-06-10T12:03:35;221.27;;;208.70;;
20458;SDS011;10388;52.314;7.938;2023-06-10T12:06:07;227.18;;;214.10;;
20458;SDS011;10388;52.314;7.938;2023-06-10T12:08:41;231.30;;;218.07;;
20458;SDS011;10388;52.314;7.938;2023-06-10T12:11:12;222.80;;;209.47;;
20458;SDS011;10388;52.314;7.938;2023-06-10T12:13:47;274.17;;;257.85;;
20458;SDS011;10388;52.314;7.938;2023-06-10T12:16:18;244.60;;;230.27;;
20458;SDS011;10388;52.314;7.938;2023-06-10T12:18:49;269.88;;;254.00;;
20458;SDS011;10388;52.314;7.938;2023-06-10T12:21:20;257.60;;;242.30;;
20458;SDS011;10388;52.314;7.938;2023-06-10T12:26:53;234.27;;;220.65;;
20458;SDS011;10388;52.314;7.938;2023-06-10T12:29:25;275.05;;;259.00;;
20458;SDS011;10388;52.314;7.938;2023-06-10T12:32:00;240.00;;;226.15;;
20458;SDS011;10388;52.314;7.938;2023-06-10T12:34:39;224.55;;;211.40;;
20458;SDS011;10388;52.314;7.938;2023-06-10T12:37:10;240.45;;;226.00;;
20458;SDS011;10388;52.314;7.938;2023-06-10T12:39:50;257.80;;;242.57;;
20458;SDS011;10388;52.314;7.938;2023-06-10T12:42:22;255.98;;;240.93;;
20458;SDS011;10388;52.314;7.938;2023-06-10T12:44:53;273.35;;;257.20;;
20458;SDS011;10388;52.314;7.938;2023-06-10T12:47:31;259.48;;;244.13;;
20458;SDS011;10388;52.314;7.938;2023-06-10T12:50:08;246.80;;;232.05;;
20458;SDS011;10388;52.314;7.938;2023-06-10T12:52:39;246.32;;;231.63;;
20458;SDS011;10388;52.314;7.938;2023-06-10T12:55:09;280.15;;;263.42;;
20458;SDS011;10388;52.314;7.938;2023-06-10T12:57:49;278.90;;;262.25;;
20458;SDS011;10388;52.314;7.938;2023-06-10T13:00:20;251.57;;;236.75;;
20458;SDS011;10388;52.314;7.938;2023-06-10T13:02:51;249.25;;;234.63;;
20458;SDS011;10388;52.314;7.938;2023-06-10T13:05:23;244.48;;;230.25;;
20458;SDS011;10388;52.314;7.938;2023-06-10T13:07:53;248.57;;;233.73;;
20458;SDS011;10388;52.314;7.938;2023-06-10T13:10:24;250.32;;;235.43;;
20458;SDS011;10388;52.314;7.938;2023-06-10T13:12:55;261.02;;;245.52;;
20458;SDS011;10388;52.314;7.938;2023-06-10T13:15:26;250.88;;;236.15;;
20458;SDS011;10388;52.314;7.938;2023-06-10T13:17:57;268.08;;;252.10;;
20458;SDS011;10388;52.314;7.938;2023-06-10T13:20:28;297.73;;;279.05;;
20458;SDS011;10388;52.314;7.938;2023-06-10T13:22:59;280.92;;;264.30;;
20458;SDS011;10388;52.314;7.938;2023-06-10T13:25:29;284.38;;;266.60;;
20458;SDS011;10388;52.314;7.938;2023-06-10T13:28:00;260.48;;;244.85;;
20458;SDS011;10388;52.314;7.938;2023-06-10T13:30:31;292.33;;;274.75;;
20458;SDS011;10388;52.314;7.938;2023-06-10T13:33:01;294.90;;;276.88;;
20458;SDS011;10388;52.314;7.938;2023-06-10T13:35:32;286.08;;;268.92;;
20458;SDS011;10388;52.314;7.938;2023-06-10T13:38:02;282.45;;;265.52;;
20458;SDS011;10388;52.314;7.938;2023-06-10T13:40:33;299.83;;;282.05;;
20458;SDS011;10388;52.314;7.938;2023-06-10T13:43:03;306.85;;;288.25;;
20458;SDS011;10388;52.314;7.938;2023-06-10T13:45:34;270.50;;;254.30;;
20458;SDS011;10388;52.314;7.938;2023-06-10T13:48:05;295.40;;;277.55;;
20458;SDS011;10388;52.314;7.938;2023-06-10T13:50:36;253.67;;;238.83;;
20458;SDS011;10388;52.314;7.938;2023-06-10T13:53:07;273.05;;;256.70;;
20458;SDS011;10388;52.314;7.938;2023-06-10T13:55:38;302.90;;;284.40;;
20458;SDS011;10388;52.314;7.938;2023-06-10T13:58:08;277.60;;;260.73;;
20458;SDS011;10388;52.314;7.938;2023-06-10T14:00:39;273.63;;;257.33;;
20458;SDS011;10388;52.314;7.938;2023-06-10T14:03:09;287.83;;;270.58;;
20458;SDS011;10388;52.314;7.938;2023-06-10T14:05:40;289.95;;;272.55;;
20458;SDS011;10388;52.314;7.938;2023-06-10T14:08:11;245.45;;;230.65;;
20458;SDS011;10388;52.314;7.938;2023-06-10T14:10:42;280.92;;;263.77;;
20458;SDS011;10388;52.314;7.938;2023-06-10T14:13:12;298.73;;;280.37;;
20458;SDS011;10388;52.314;7.938;2023-06-10T14:15:43;284.92;;;267.75;;
20458;SDS011;10388;52.314;7.938;2023-06-10T14:18:14;268.52;;;252.63;;
20458;SDS011;10388;52.314;7.938;2023-06-10T14:20:44;301.60;;;282.88;;
20458;SDS011;10388;52.314;7.938;2023-06-10T14:23:15;291.98;;;274.42;;
20458;SDS011;10388;52.314;7.938;2023-06-10T14:25:45;307.98;;;289.38;;
20458;SDS011;10388;52.314;7.938;2023-06-10T14:28:16;278.23;;;261.52;;
20458;SDS011;10388;52.314;7.938;2023-06-10T14:30:46;288.23;;;270.67;;
20458;SDS011;10388;52.314;7.938;2023-06-10T14:33:17;284.77;;;267.38;;
20458;SDS011;10388;52.314;7.938;2023-06-10T14:35:47;298.73;;;280.55;;
20458;SDS011;10388;52.314;7.938;2023-06-10T14:38:18;290.48;;;272.88;;
20458;SDS011;10388;52.314;7.938;2023-06-10T14:40:49;306.55;;;287.02;;
20458;SDS011;10388;52.314;7.938;2023-06-10T14:43:19;300.67;;;282.50;;
20458;SDS011;10388;52.314;7.938;2023-06-10T14:45:50;302.30;;;283.77;;
20458;SDS011;10388;52.314;7.938;2023-06-10T14:48:21;313.85;;;294.67;;
20458;SDS011;10388;52.314;7.938;2023-06-10T14:50:51;299.10;;;280.50;;
20458;SDS011;10388;52.314;7.938;2023-06-10T14:53:24;295.95;;;278.25;;
20458;SDS011;10388;52.314;7.938;2023-06-10T14:55:55;299.17;;;281.15;;
20458;SDS011;10388;52.314;7.938;2023-06-10T14:58:25;285.95;;;268.63;;
20458;SDS011;10388;52.314;7.938;2023-06-10T15:00:56;278.33;;;261.58;;
20458;SDS011;10388;52.314;7.938;2023-06-10T15:03:26;298.00;;;280.27;;